Latest Coastal Weather Observations for Double Island Point

IDQ60701

Issued at 10:32 am EST Thursday 18 October 2018 (issued every 10 minutes, with the page automatically refreshed every 10 minutes)

About coastal observations | Map of coastal stations | Coastal observations for QLD | Marine services | Other Formats
Station Details ID: 040068 Name: DOUBLE ISLAND POINT LIGHTHOUSE Lat: -25.93 Lon: 153.19 Height: 95.64 m
Data from the previous 72 hours. | See also: Recent months at Double Island Point
Date/Time
EST
Wind Sea
Height
m
Swell Vis
km
Cloud Weather Temp
°C
Press
hPa
Rain since
9am
mm
Dir  Spd
kts
Gust
kts
Height
m
Period
s
Dir
18/10:30am ESE 13 15 - - - - - - - 24.4 1017.8 0.0
18/10:00am ESE 10 11 - - - - - - - 25.1 1017.9 0.0
18/09:30am ESE 9 12 - - - - - - - 24.3 1018.0 0.0
18/09:00am SE 9 10 - - - - - - - 22.9 1018.2 0.2
18/08:30am SE 11 13 - - - - - - - 22.5 1018.2 0.2
18/08:00am ESE 10 12 - - - - - - - 23.7 1017.9 0.2
18/07:30am SE 12 14 - - - - - - - 23.1 1017.5 0.2
18/07:00am ESE 11 13 - - - - - - - 22.9 1017.2 0.2
18/06:30am SE 12 15 - - - - - - - 22.4 1016.8 0.2
18/06:00am ESE 12 14 - - - - - - - 21.6 1016.5 0.2
18/05:30am ESE 11 14 - - - - - - - 20.7 1016.1 0.2
18/05:00am ESE 12 14 - - - - - - - 20.6 1015.8 0.2
18/04:30am SE 9 11 - - - - - - - 20.4 1015.5 0.2
18/04:00am ESE 10 13 - - - - - - - 20.3 1015.4 0.2
18/03:30am ESE 15 18 - - - - - - - 20.1 1015.2 0.2
18/03:00am ESE 12 14 - - - - - - - 20.4 1015.4 0.2
18/02:30am E 16 19 - - - - - - - 20.7 1015.2 0.2
18/02:00am E 17 19 - - - - - - - 20.4 1015.2 0.2
18/01:30am E 14 20 - - - - - - - 20.7 1015.3 0.2
18/01:00am ESE 18 20 - - - - - - - 21.0 1015.4 0.2
18/12:30am E 15 19 - - - - - - - 20.8 1015.6 0.2
18/12:00am E 15 18 - - - - - - - 20.6 1015.8 0.2
 
Date/Time
EST
Wind Sea
Height
m
Swell Vis
km
Cloud Weather Temp
°C
Press
hPa
Rain since
9am
mm
Dir  Spd
kts
Gust
kts
Height
m
Period
s
Dir
17/11:30pm ESE 16 19 - - - - - - - 21.3 1015.8 0.2
17/11:00pm ESE 17 19 - - - - - - - 21.2 1016.1 0.2
17/10:30pm ESE 15 18 - - - - - - - 21.3 1016.2 0.2
17/10:00pm ESE 17 20 - - - - - - - 21.4 1016.1 0.2
17/09:30pm ESE 18 21 - - - - - - - 21.5 1015.8 0.2
17/09:00pm ESE 17 19 - - - - - - - 21.6 1015.9 0.2
17/08:30pm ESE 17 19 - - - - - - - 21.6 1015.7 0.2
17/08:00pm ESE 17 19 - - - - - - - 21.5 1015.1 0.2
17/07:30pm ESE 16 19 - - - - - - - 21.5 1014.7 0.2
17/07:00pm ESE 14 16 - - - - - - - 21.4 1014.5 0.2
17/06:30pm ESE 12 14 - - - - - - - 21.3 1014.4 0.2
17/06:00pm SE 11 12 - - - - - - - 21.3 1014.6 0.2
17/05:30pm SE 10 11 - - - - - - - 21.4 1014.6 0.2
17/05:00pm SSE 11 13 - - - - - - - 21.6 1014.5 0.2
17/04:30pm SSE 12 14 - - - - - - - 21.8 1014.4 0.2
17/04:00pm SSE 12 13 - - - - - - - 22.3 1014.5 0.2
17/03:30pm SSE 13 15 - - - - - - - 22.7 1014.5 0.2
17/03:00pm SE 15 16 - - - - - - - 22.7 1014.3 0.2
17/02:30pm SE 14 16 - - - - - - - 22.2 1014.6 0.2
17/02:00pm SE 14 16 - - - - - - - 23.2 1014.8 0.2
17/01:30pm SSE 15 17 - - - - - - - 23.1 1014.8 0.2
17/01:00pm SE 15 16 - - - - - - - 23.1 1015.3 0.2
17/12:30pm SE 15 17 - - - - - - - 23.1 1015.7 0.2
17/12:00pm SSE 15 17 - - - - - - - 23.4 1015.9 0.2
17/11:30am SSE 14 16 - - - - - - - 23.8 1016.3 0.2
17/11:00am SSE 15 16 - - - - - - - 24.0 1016.5 0.2
17/10:30am SSE 15 17 - - - - - - - 23.8 1016.7 0.2
17/10:00am SSE 15 18 - - - - - - - 23.4 1016.8 0.2
17/09:30am SE 17 20 - - - - - - - 22.9 1016.7 0.2
17/09:00am SE 16 19 - - - - - - - 22.3 1016.9 0.0
17/08:30am SE 16 18 - - - - - - - 22.9 1016.8 0.0
17/08:00am SE 14 18 - - - - - - - 23.0 1016.9 0.0
17/07:30am ESE 15 18 - - - - - - - 22.0 1016.8 0.0
17/07:00am ESE 14 16 - - - - - - - 22.1 1016.4 0.0
17/06:30am ESE 14 16 - - - - - - - 21.1 1016.3 0.0
17/06:00am SE 14 16 - - - - - - - 20.7 1015.8 0.0
17/05:30am SE 15 19 - - - - - - - 20.4 1015.5 0.0
17/05:00am SE 15 18 - - - - - - - 20.5 1015.1 0.0
17/04:30am SE 15 17 - - - - - - - 20.5 1014.9 0.0
17/04:00am SE 14 16 - - - - - - - 20.5 1014.8 0.0
17/03:30am SE 14 16 - - - - - - - 20.6 1014.7 0.0
17/03:00am SE 16 19 - - - - - - - 20.5 1014.5 0.0
17/02:30am SE 17 19 - - - - - - - 20.6 1014.8 0.0
17/02:00am SE 17 19 - - - - - - - 20.7 1014.9 0.0
17/01:30am SE 17 19 - - - - - - - 20.8 1015.0 0.0
17/01:00am SE 18 21 - - - - - - - 20.7 1014.9 0.0
17/12:30am SE 18 20 - - - - - - - 20.9 1014.7 0.0
17/12:00am SE 20 22 - - - - - - - 20.8 1014.9 0.0
 
Date/Time
EST
Wind Sea
Height
m
Swell Vis
km
Cloud Weather Temp
°C
Press
hPa
Rain since
9am
mm
Dir  Spd
kts
Gust
kts
Height
m
Period
s
Dir
16/11:30pm SE 20 23 - - - - - - - 20.8 1015.0 0.0
16/11:00pm SE 22 24 - - - - - - - 20.8 1015.3 0.0
16/10:30pm SE 19 23 - - - - - - - 20.7 1015.5 0.0
16/10:00pm SE 20 24 - - - - - - - 20.8 1015.5 0.0
16/09:30pm SE 21 23 - - - - - - - 20.8 1015.9 0.0
16/09:00pm SE 20 22 - - - - - - - 20.9 1016.3 0.0
16/08:30pm SE 19 21 - - - - - - - 20.9 1016.4 0.0
16/08:00pm SE 18 22 - - - - - - - 21.0 1016.2 0.0
16/07:30pm SE 18 21 - - - - - - - 21.0 1016.2 0.0
16/07:00pm SE 18 20 - - - - - - - 21.1 1015.7 0.0
16/06:30pm SE 17 20 - - - - - - - 21.1 1015.4 0.0
16/06:00pm SE 18 21 - - - - - - - 21.2 1015.1 0.0
16/05:30pm SE 18 21 - - - - - - - 21.2 1014.8 0.0
16/05:00pm SE 17 20 - - - - - - - 21.3 1014.4 0.0
16/04:30pm ESE 14 17 - - - - - - - 20.9 1014.2 0.0
16/04:00pm ESE 17 21 - - - - - - - 21.7 1013.9 0.0
16/03:30pm SE 17 19 - - - - - - - 22.3 1014.0 0.0
16/03:00pm SE 18 21 - - - - - - - 22.5 1014.0 0.0
16/02:30pm SE 21 24 - - - - - - - 22.0 1013.9 0.0
16/02:00pm SE 19 22 - - - - - - - 23.0 1014.1 0.0
16/01:30pm SE 21 24 - - - - - - - 23.1 1014.5 0.0
16/01:00pm SE 18 21 - - - - - - - 23.3 1014.8 0.0
16/12:30pm SE 20 22 - - - - - - - 23.4 1015.1 0.0
16/12:00pm SE 20 23 - - - - - - - 23.1 1015.2 0.0
16/11:30am SE 20 23 - - - - - - - 23.2 1015.3 0.0
16/11:00am SE 21 24 - - - - - - - 23.0 1015.3 0.0
16/10:30am SE 21 23 - - - - - - - 23.2 1015.4 0.0
16/10:00am SE 20 25 - - - - - - - 23.1 1015.4 0.0
16/09:30am SE 18 20 - - - - - - - 23.0 1015.5 0.0
16/09:00am SE 15 17 - - - - - - - 23.5 1015.7 1.0
16/08:30am SE 12 14 - - - - - - - 22.0 1015.7 1.0
16/08:00am ESE 16 19 - - - - - - - 21.9 1015.5 1.0
16/07:30am ESE 12 15 - - - - - - - 22.7 1015.3 1.0
16/07:00am ESE 14 16 - - - - - - - 21.6 1014.7 1.0
16/06:30am ESE 15 18 - - - - - - - 20.9 1014.5 1.0
16/06:00am SE 13 16 - - - - - - - 21.0 1013.9 1.0
16/05:30am ESE 17 19 - - - - - - - 20.3 1013.3 1.0
16/05:00am ESE 16 19 - - - - - - - 20.1 1012.7 1.0
16/04:30am ESE 12 14 - - - - - - - 19.8 1012.6 1.0
16/04:00am SE 12 13 - - - - - - - 19.7 1012.0 1.0
16/03:30am SSE 15 16 - - - - - - - 19.6 1011.6 1.0
16/03:00am SE 13 14 - - - - - - - 19.9 1011.7 1.0
16/02:30am SE 12 15 - - - - - - - 20.0 1012.0 1.0
16/02:00am SE 12 15 - - - - - - - 20.1 1012.2 1.0
16/01:30am SE 16 18 - - - - - - - 20.2 1012.4 1.0
16/01:00am SE 18 20 - - - - - - - 20.1 1012.1 1.0
16/12:30am SE 21 24 - - - - - - - 20.1 1012.3 1.0
16/12:00am SE 21 25 - - - - - - - 20.3 1012.7 1.0
 
Date/Time
EST
Wind Sea
Height
m
Swell Vis
km
Cloud Weather Temp
°C
Press
hPa
Rain since
9am
mm
Dir  Spd
kts
Gust
kts
Height
m
Period
s
Dir
15/11:30pm SE 25 28 - - - - - - - 20.3 1012.7 1.0
15/11:00pm SSE 33 40 - - - - - - - 20.3 1012.3 1.0
15/10:30pm SSE 35 40 - - - - - - - 20.2 1012.1 1.0
15/10:01pm SSE 38 48 - - - - - - - 20.2 1011.8 1.0
15/10:00pm SSE 39 48 - - - - - - - 20.2 1011.8 1.0
15/09:32pm S 39 53 - - - - - - - 19.6 1010.9 1.0
15/09:30pm S 39 47 - - - - - - - 19.5 1011.1 1.0
15/09:00pm S 35 46 - - - - - - - 19.2 1012.0 0.8
15/08:30pm S 37 48 - - - - - - - 20.1 1012.2 0.8
15/08:14pm SSE 38 48 - - - - - - - 20.1 1012.3 0.8
15/08:00pm SSE 38 45 - - - - - - - 20.2 1012.4 0.8
15/07:32pm S 36 47 - - - - - - - 20.4 1012.3 0.8
15/07:30pm S 35 44 - - - - - - - 20.4 1012.5 0.8
15/07:11pm S 32 43 - - - - - - - 19.9 1012.4 0.8
15/07:00pm S 33 40 - - - - - - - 19.9 1012.9 0.8
15/06:31pm S 29 39 - - - - - - - 20.0 1013.0 0.8
15/06:30pm S 28 36 - - - - - - - 20.0 1013.1 0.8
15/06:00pm S 27 35 - - - - - - - 20.0 1013.3 0.8
15/05:30pm SSE 24 30 - - - - - - - 20.3 1013.6 0.8
15/05:00pm SSE 26 31 - - - - - - - 20.0 1013.2 0.8
15/04:30pm SE 26 30 - - - - - - - 20.0 1013.0 0.8
15/04:00pm SE 26 29 - - - - - - - 20.2 1012.9 0.8
15/03:30pm SSE 20 27 - - - - - - - 19.8 1012.6 0.6
15/03:00pm S 24 31 - - - - - - - 19.4 1012.3 0.2
15/02:30pm S 25 31 - - - - - - - 19.5 1012.5 0.2
15/02:00pm S 24 29 - - - - - - - 20.1 1012.5 0.2
15/01:30pm S 25 29 - - - - - - - 20.6 1012.7 0.2
15/01:00pm S 23 27 - - - - - - - 19.9 1013.2 0.2
15/12:30pm S 21 26 - - - - - - - 19.7 1013.6 0.2
15/12:00pm S 17 21 - - - - - - Recent precip. 18.6 1014.2 0.2
15/11:30am S 18 23 - - - - - - - 18.1 1014.7 0.2
15/11:00am SSE 21 27 - - - - - - - 18.9 1014.8 0.0

Other Formats:

Comma delimited format used in spreadsheet applications
http://www.bom.gov.au/fwo/IDQ60701/IDQ60701.94584.axf

JavaScript Object Notation format (JSON) in row-major order
http://www.bom.gov.au/fwo/IDQ60701/IDQ60701.94584.json